Time;durP1;ratioP1;P1;durP2;ratioP2;P2;SDS_P1;SDS_P2;PMS_P1;PMS_P2;Temp;Humidity;BMP_temperature;BMP_pressure;BME280_temperature;BME280_humidity;BME280_pressure;Samples;Min_cycle;Max_cycle;Signal;HPM_P1;HPM_P2
2022/10/12 00:00:49;;;;;;;0.10;0.10;;;6.10;99.90;;;;;;5049331;28;20241;-76
2022/10/12 00:03:18;;;;;;;0.10;0.10;;;6.10;99.90;;;;;;5043602;28;20211;-77
2022/10/12 00:05:46;;;;;;;0.10;0.10;;;6.00;99.90;;;;;;5039326;28;20198;-77
2022/10/12 00:08:14;;;;;;;0.10;0.10;;;5.90;99.90;;;;;;5032684;28;20269;-77
2022/10/12 00:10:44;;;;;;;0.10;0.10;;;5.80;99.90;;;;;;5033316;28;20222;-77
2022/10/12 00:13:12;;;;;;;0.10;0.10;;;5.70;99.90;;;;;;5032180;28;20230;-75
2022/10/12 00:15:41;;;;;;;0.10;0.10;;;5.70;99.90;;;;;;5031426;28;20207;-76
2022/10/12 00:18:10;;;;;;;0.10;0.10;;;5.60;99.90;;;;;;5032236;28;20209;-76
2022/10/12 00:20:38;;;;;;;0.10;0.10;;;5.70;99.90;;;;;;5035040;28;20225;-77
2022/10/12 00:23:06;;;;;;;0.00;0.00;;;5.50;99.90;;;;;;5035003;28;20223;-75
2022/10/12 00:25:36;;;;;;;0.10;0.10;;;5.30;99.90;;;;;;5034723;28;20704;-75
2022/10/12 00:28:04;;;;;;;0.10;0.10;;;5.30;99.90;;;;;;5036063;28;20207;-75
2022/10/12 00:30:33;;;;;;;0.10;0.10;;;5.30;99.90;;;;;;5035596;28;20206;-74
2022/10/12 00:33:01;;;;;;;0.10;0.10;;;5.30;99.90;;;;;;5034218;28;20219;-75
2022/10/12 00:35:30;;;;;;;0.10;0.10;;;5.40;99.90;;;;;;5038188;28;20199;-75
2022/10/12 00:37:58;;;;;;;0.10;0.10;;;5.40;99.90;;;;;;5055034;28;20231;-75
2022/10/12 00:40:26;;;;;;;0.03;0.03;;;5.50;99.90;;;;;;5034657;28;20265;-74
2022/10/12 00:42:54;;;;;;;0.10;0.10;;;5.50;99.90;;;;;;5034523;28;20234;-74
2022/10/12 00:45:26;;;;;;;0.10;0.10;;;5.40;99.90;;;;;;5035478;28;20203;-75
2022/10/12 00:47:58;;;;;;;0.10;0.10;;;5.50;99.90;;;;;;5027218;28;20274;-74
2022/10/12 00:50:29;;;;;;;0.10;0.10;;;5.50;99.90;;;;;;5032627;28;20245;-75
2022/10/12 00:53:02;;;;;;;0.08;0.08;;;5.50;99.90;;;;;;5033383;28;20265;-77
2022/10/12 00:55:34;;;;;;;0.10;0.10;;;5.60;99.90;;;;;;5032041;28;20261;-77
2022/10/12 00:58:03;;;;;;;0.10;0.10;;;5.60;99.90;;;;;;5030175;28;20198;-76
2022/10/12 01:00:31;;;;;;;0.00;0.00;;;5.50;99.90;;;;;;5048995;28;20683;-75
2022/10/12 01:03:00;;;;;;;0.10;0.10;;;5.50;99.90;;;;;;5019918;28;20281;-75
2022/10/12 01:05:28;;;;;;;0.10;0.10;;;5.50;99.90;;;;;;5024150;28;20626;-76
2022/10/12 01:07:56;;;;;;;0.10;0.10;;;5.50;99.90;;;;;;5026607;28;20206;-76
2022/10/12 01:10:25;;;;;;;0.00;0.00;;;5.50;99.90;;;;;;5030105;28;20203;-76
2022/10/12 01:12:53;;;;;;;0.10;0.10;;;5.70;99.90;;;;;;5029653;28;20219;-77
2022/10/12 01:15:23;;;;;;;0.10;0.10;;;5.70;99.90;;;;;;5022004;28;20254;-77
2022/10/12 01:17:59;;;;;;;0.10;0.10;;;5.80;99.90;;;;;;5025040;28;20212;-76
2022/10/12 01:20:56;;;;;;;0.10;0.10;;;5.70;99.90;;;;;;5026530;28;20283;-77
2022/10/12 01:24:12;;;;;;;0.10;0.10;;;5.70;99.90;;;;;;5029819;28;20272;-76
2022/10/12 01:27:03;;;;;;;0.10;0.10;;;5.70;99.90;;;;;;5031966;28;20210;-75
2022/10/12 01:29:56;;;;;;;0.10;0.10;;;5.70;99.90;;;;;;5036748;28;20219;-78
2022/10/12 01:32:30;;;;;;;0.10;0.10;;;5.80;99.90;;;;;;5039857;28;20244;-76
2022/10/12 01:35:03;;;;;;;0.00;0.00;;;5.60;99.90;;;;;;5031432;28;20206;-77
2022/10/12 01:37:41;;;;;;;0.10;0.10;;;5.60;99.90;;;;;;5035189;28;20565;-76
2022/10/12 01:40:14;;;;;;;0.10;0.10;;;5.50;99.90;;;;;;5015374;28;20246;-76
2022/10/12 01:42:44;;;;;;;0.10;0.10;;;5.60;99.90;;;;;;5015214;28;20247;-74
2022/10/12 01:45:14;;;;;;;0.10;0.10;;;5.40;99.90;;;;;;5030226;28;20265;-74
2022/10/12 01:47:48;;;;;;;0.10;0.10;;;5.10;99.90;;;;;;5034667;28;20203;-75
2022/10/12 01:50:17;;;;;;;0.10;0.10;;;5.10;99.90;;;;;;5036865;28;20226;-75
2022/10/12 01:52:57;;;;;;;0.10;0.10;;;5.20;99.90;;;;;;5022854;28;20318;-75
2022/10/12 01:55:38;;;;;;;0.10;0.10;;;5.20;99.90;;;;;;5027961;28;20249;-75
2022/10/12 01:58:24;;;;;;;0.10;0.10;;;5.30;99.90;;;;;;5026847;28;20662;-76
2022/10/12 02:00:59;;;;;;;0.10;0.10;;;5.30;99.90;;;;;;5033510;28;20199;-76
2022/10/12 02:03:36;;;;;;;0.10;0.10;;;5.20;99.90;;;;;;5033384;28;20253;-76
2022/10/12 02:06:08;;;;;;;0.10;0.10;;;5.20;99.90;;;;;;5032146;28;20214;-76
2022/10/12 02:08:41;;;;;;;0.10;0.10;;;5.20;99.90;;;;;;5034285;28;20592;-77
2022/10/12 02:11:11;;;;;;;0.10;0.10;;;5.20;99.90;;;;;;5031507;28;20234;-76
2022/10/12 02:13:43;;;;;;;0.10;0.10;;;5.30;99.90;;;;;;5030306;28;20218;-76
2022/10/12 02:16:13;;;;;;;0.10;0.10;;;5.30;99.90;;;;;;5035131;28;20207;-77
2022/10/12 02:18:46;;;;;;;0.10;0.10;;;5.20;99.90;;;;;;5035704;28;20751;-76
2022/10/12 02:21:18;;;;;;;0.10;0.10;;;5.20;99.90;;;;;;5034719;28;20202;-76
2022/10/12 02:23:48;;;;;;;0.10;0.10;;;5.30;99.90;;;;;;5034180;28;20227;-76
2022/10/12 02:26:17;;;;;;;0.10;0.10;;;5.30;99.90;;;;;;5033089;28;20658;-76
2022/10/12 02:28:49;;;;;;;0.10;0.10;;;5.30;99.90;;;;;;5034926;28;20206;-76
2022/10/12 02:31:23;;;;;;;0.10;0.10;;;5.30;99.90;;;;;;5036979;28;20195;-76
2022/10/12 02:34:00;;;;;;;0.10;0.10;;;5.40;99.90;;;;;;5033642;28;20214;-76
2022/10/12 02:36:36;;;;;;;0.10;0.10;;;5.50;99.90;;;;;;5035897;28;20203;-75
2022/10/12 02:39:10;;;;;;;0.10;0.10;;;5.40;99.90;;;;;;5030589;28;20194;-76
2022/10/12 02:41:41;;;;;;;0.10;0.10;;;5.40;99.90;;;;;;5035805;28;20190;-76
2022/10/12 02:44:12;;;;;;;0.10;0.10;;;5.50;99.90;;;;;;5033924;28;20226;-76
2022/10/12 02:46:41;;;;;;;0.10;0.10;;;5.50;99.90;;;;;;5033855;28;20207;-76
2022/10/12 02:49:12;;;;;;;0.10;0.10;;;5.50;99.90;;;;;;5035098;28;20215;-76
2022/10/12 02:51:41;;;;;;;0.10;0.10;;;5.40;99.90;;;;;;5036502;28;20198;-76
2022/10/12 02:54:09;;;;;;;0.10;0.10;;;5.40;99.90;;;;;;5033911;28;20226;-76
2022/10/12 02:56:43;;;;;;;0.10;0.10;;;5.50;99.90;;;;;;5034667;28;20264;-74
2022/10/12 02:59:11;;;;;;;0.00;0.00;;;5.50;99.90;;;;;;5026557;28;20190;-75
2022/10/12 03:01:40;;;;;;;0.10;0.10;;;5.40;99.90;;;;;;5033405;28;20658;-76
2022/10/12 03:04:08;;;;;;;0.10;0.10;;;5.30;99.90;;;;;;5031245;28;20225;-76
2022/10/12 03:06:37;;;;;;;0.10;0.10;;;5.30;99.90;;;;;;5031551;28;20582;-76
2022/10/12 03:09:06;;;;;;;0.10;0.10;;;5.20;99.90;;;;;;5033590;28;20238;-76
2022/10/12 03:11:34;;;;;;;0.10;0.10;;;5.20;99.90;;;;;;5046275;28;20202;-75
2022/10/12 03:14:01;;;;;;;0.10;0.10;;;5.20;99.90;;;;;;5046152;28;20256;-75
2022/10/12 03:16:29;;;;;;;0.10;0.10;;;5.00;99.90;;;;;;5042586;28;20206;-76
2022/10/12 03:18:58;;;;;;;0.10;0.10;;;5.00;99.90;;;;;;5030472;28;20214;-76
2022/10/12 03:21:26;;;;;;;0.05;0.05;;;5.10;99.90;;;;;;5033397;28;20607;-75
2022/10/12 03:23:55;;;;;;;0.10;0.10;;;5.10;99.90;;;;;;5035167;28;20223;-75
2022/10/12 03:26:23;;;;;;;0.10;0.10;;;5.00;99.90;;;;;;5033656;28;20213;-75
2022/10/12 03:28:51;;;;;;;0.10;0.10;;;5.00;99.90;;;;;;5031690;28;20209;-75
2022/10/12 03:31:19;;;;;;;0.10;0.10;;;5.00;99.90;;;;;;5033123;28;20301;-76
2022/10/12 03:33:46;;;;;;;0.10;0.10;;;5.10;99.90;;;;;;5032363;28;20646;-77
2022/10/12 03:36:14;;;;;;;0.10;0.10;;;5.10;99.90;;;;;;5030341;28;20206;-75
2022/10/12 03:38:42;;;;;;;0.10;0.10;;;5.10;99.90;;;;;;5032286;28;20195;-76
2022/10/12 03:41:12;;;;;;;0.10;0.10;;;5.10;99.90;;;;;;5031456;28;20195;-75
2022/10/12 03:43:40;;;;;;;0.10;0.10;;;5.20;99.90;;;;;;5031199;28;20242;-75
2022/10/12 03:46:07;;;;;;;0.10;0.10;;;5.10;99.90;;;;;;5030036;28;20732;-75
2022/10/12 03:48:35;;;;;;;0.00;0.00;;;5.20;99.90;;;;;;5030525;28;20727;-75
2022/10/12 03:51:04;;;;;;;0.10;0.10;;;5.30;99.90;;;;;;5031341;28;20218;-75
2022/10/12 03:53:32;;;;;;;0.03;0.03;;;5.20;99.90;;;;;;5033636;28;20226;-76
2022/10/12 03:56:00;;;;;;;0.10;0.10;;;5.00;99.90;;;;;;5030636;28;20202;-76
2022/10/12 03:58:29;;;;;;;0.10;0.10;;;5.00;99.90;;;;;;5033571;28;20620;-76
2022/10/12 04:00:57;;;;;;;0.10;0.10;;;5.00;99.90;;;;;;5026773;28;20728;-76
2022/10/12 04:03:25;;;;;;;0.00;0.00;;;5.00;99.90;;;;;;5034118;28;20222;-76
2022/10/12 04:05:54;;;;;;;0.10;0.10;;;4.90;99.90;;;;;;5033564;28;20689;-76
2022/10/12 04:08:22;;;;;;;0.10;0.10;;;5.00;99.90;;;;;;5030501;28;20207;-76
2022/10/12 04:10:50;;;;;;;0.10;0.10;;;5.00;99.90;;;;;;5032136;28;20261;-76
2022/10/12 04:13:19;;;;;;;0.10;0.10;;;5.00;99.90;;;;;;5031447;28;20759;-75
2022/10/12 04:15:48;;;;;;;0.10;0.10;;;5.10;99.90;;;;;;5030903;28;20286;-76
2022/10/12 04:18:16;;;;;;;0.10;0.10;;;5.10;99.90;;;;;;5034183;28;20205;-76
2022/10/12 04:20:47;;;;;;;0.10;0.10;;;5.10;99.90;;;;;;5036074;28;20199;-76
2022/10/12 04:23:15;;;;;;;0.10;0.10;;;5.20;99.90;;;;;;5035909;28;20245;-75
2022/10/12 04:25:43;;;;;;;0.10;0.10;;;5.00;99.90;;;;;;5031879;28;20211;-75
2022/10/12 04:28:11;;;;;;;0.10;0.10;;;4.80;99.90;;;;;;5033325;28;20228;-76
2022/10/12 04:30:39;;;;;;;0.10;0.10;;;4.70;99.90;;;;;;5034866;28;20226;-76
2022/10/12 04:33:08;;;;;;;0.10;0.10;;;4.70;99.90;;;;;;5033794;28;20249;-76
2022/10/12 04:35:36;;;;;;;0.10;0.10;;;4.60;99.90;;;;;;5034242;28;20211;-74
2022/10/12 04:38:04;;;;;;;0.10;0.10;;;4.50;99.90;;;;;;5033913;28;20225;-74
2022/10/12 04:40:32;;;;;;;0.10;0.10;;;4.40;99.90;;;;;;5034266;28;20199;-74
2022/10/12 04:43:00;;;;;;;0.10;0.10;;;4.40;99.90;;;;;;5034665;28;20219;-74
2022/10/12 04:45:28;;;;;;;0.10;0.10;;;4.40;99.90;;;;;;5033471;28;20285;-74
2022/10/12 04:47:56;;;;;;;0.10;0.10;;;4.30;99.90;;;;;;5033341;28;20199;-74
2022/10/12 04:50:25;;;;;;;0.10;0.10;;;4.30;99.90;;;;;;5034472;28;20298;-74
2022/10/12 04:52:57;;;;;;;0.10;0.10;;;4.20;99.90;;;;;;5028539;28;20241;-77
2022/10/12 04:55:25;;;;;;;0.10;0.10;;;4.20;99.90;;;;;;5057535;22;20642;-81
2022/10/12 04:57:53;;;;;;;0.10;0.10;;;4.20;99.90;;;;;;5033681;28;20199;-82
2022/10/12 05:00:21;;;;;;;0.10;0.10;;;4.20;99.90;;;;;;5031546;28;20207;-82
2022/10/12 05:02:49;;;;;;;0.10;0.10;;;4.30;99.90;;;;;;5038257;28;20211;-81
2022/10/12 05:05:17;;;;;;;0.10;0.10;;;4.30;99.90;;;;;;5038452;28;20277;-81
2022/10/12 05:07:46;;;;;;;0.10;0.10;;;4.30;99.90;;;;;;5035627;28;20196;-81
2022/10/12 05:10:14;;;;;;;0.10;0.10;;;4.30;99.90;;;;;;5040882;28;20261;-82
2022/10/12 05:12:42;;;;;;;0.10;0.10;;;4.30;99.90;;;;;;5035952;28;20203;-81
2022/10/12 05:15:11;;;;;;;0.10;0.10;;;4.30;99.90;;;;;;5035777;28;20223;-80
2022/10/12 05:17:38;;;;;;;0.10;0.10;;;4.30;99.90;;;;;;5035532;28;20202;-81
2022/10/12 05:20:09;;;;;;;0.10;0.10;;;4.30;99.90;;;;;;5037017;28;20201;-81
2022/10/12 05:22:37;;;;;;;0.10;0.10;;;4.40;99.90;;;;;;5036298;28;20708;-80
2022/10/12 05:25:09;;;;;;;0.10;0.10;;;4.50;99.90;;;;;;5035345;28;20237;-80
2022/10/12 05:27:37;;;;;;;0.05;0.05;;;4.60;99.90;;;;;;5034119;28;20194;-80
2022/10/12 05:30:07;;;;;;;0.10;0.10;;;4.50;99.90;;;;;;5036636;28;20222;-80
2022/10/12 05:32:35;;;;;;;0.10;0.10;;;4.60;99.90;;;;;;5036682;28;20238;-81
2022/10/12 05:35:04;;;;;;;0.10;0.10;;;4.70;99.90;;;;;;5034561;28;20258;-81
2022/10/12 05:37:33;;;;;;;0.10;0.10;;;4.70;99.90;;;;;;5035843;28;20203;-82
2022/10/12 05:40:01;;;;;;;0.10;0.10;;;4.60;99.90;;;;;;5035763;28;20292;-80
2022/10/12 05:42:30;;;;;;;0.10;0.10;;;4.60;99.90;;;;;;5033761;28;20207;-80
2022/10/12 05:44:58;;;;;;;0.10;0.10;;;4.60;99.90;;;;;;5026222;28;20219;-80
2022/10/12 05:47:26;;;;;;;0.10;0.10;;;4.70;99.90;;;;;;5032546;28;20242;-80
2022/10/12 05:49:54;;;;;;;0.10;0.10;;;4.70;99.90;;;;;;5035231;28;20206;-80
2022/10/12 05:52:21;;;;;;;0.10;0.10;;;4.60;99.90;;;;;;5034923;28;20223;-80
2022/10/12 05:54:49;;;;;;;0.10;0.10;;;4.70;99.90;;;;;;5035041;28;20309;-80
2022/10/12 05:57:18;;;;;;;0.00;0.00;;;4.70;99.90;;;;;;5036780;28;20681;-81
2022/10/12 05:59:47;;;;;;;0.10;0.10;;;4.70;99.90;;;;;;5036373;28;20199;-80
2022/10/12 06:02:17;;;;;;;0.10;0.10;;;4.60;99.90;;;;;;5035419;28;20191;-80
2022/10/12 06:04:45;;;;;;;0.10;0.10;;;4.60;99.90;;;;;;5033078;28;20219;-80
2022/10/12 06:07:13;;;;;;;0.10;0.10;;;4.50;99.90;;;;;;5032166;28;20226;-80
2022/10/12 06:09:43;;;;;;;0.10;0.10;;;4.50;99.90;;;;;;5035433;28;20211;-80
2022/10/12 06:12:11;;;;;;;0.10;0.10;;;4.60;99.90;;;;;;5034423;28;20234;-80
2022/10/12 06:14:39;;;;;;;0.10;0.10;;;4.50;99.90;;;;;;5025649;28;20247;-82
2022/10/12 06:17:08;;;;;;;0.10;0.10;;;4.60;99.90;;;;;;5028324;28;20203;-80
2022/10/12 06:19:36;;;;;;;0.10;0.10;;;4.60;99.90;;;;;;5030290;28;20195;-79
2022/10/12 06:22:04;;;;;;;0.10;0.10;;;4.70;99.90;;;;;;5032811;28;20201;-79
2022/10/12 06:24:32;;;;;;;0.10;0.10;;;4.70;99.90;;;;;;5032323;28;20198;-79
2022/10/12 06:27:01;;;;;;;0.20;0.20;;;4.80;99.90;;;;;;5036261;28;20195;-81
2022/10/12 06:29:29;;;;;;;0.10;0.10;;;4.80;99.90;;;;;;5032061;28;20199;-79
2022/10/12 06:31:57;;;;;;;0.10;0.10;;;4.80;99.90;;;;;;5032047;28;20276;-79
2022/10/12 06:34:27;;;;;;;0.10;0.10;;;4.80;99.90;;;;;;5030858;28;20199;-79
2022/10/12 06:36:55;;;;;;;0.10;0.10;;;4.80;99.90;;;;;;5033723;28;20230;-79
2022/10/12 06:39:28;;;;;;;0.10;0.10;;;4.80;99.90;;;;;;5031229;28;20693;-80
2022/10/12 06:41:56;;;;;;;0.10;0.10;;;4.80;99.90;;;;;;5034198;28;20622;-81
2022/10/12 06:44:28;;;;;;;0.10;0.10;;;4.80;99.90;;;;;;5031861;28;20765;-80
2022/10/12 06:46:56;;;;;;;0.10;0.10;;;4.80;99.90;;;;;;5031094;28;20336;-79
2022/10/12 06:49:24;;;;;;;0.10;0.10;;;4.90;99.90;;;;;;5032538;28;20216;-82
2022/10/12 06:51:54;;;;;;;0.10;0.10;;;4.90;99.90;;;;;;5034437;28;20230;-79
2022/10/12 06:54:21;;;;;;;0.10;0.10;;;5.00;99.90;;;;;;5032284;28;20206;-79
2022/10/12 06:56:49;;;;;;;0.10;0.10;;;5.00;99.90;;;;;;5031221;28;20731;-79
2022/10/12 06:59:23;;;;;;;0.00;0.00;;;5.10;99.90;;;;;;5028655;28;20551;-79
2022/10/12 07:01:51;;;;;;;0.10;0.10;;;5.10;99.90;;;;;;5030301;28;20203;-79
2022/10/12 07:04:19;;;;;;;0.10;0.10;;;5.20;99.90;;;;;;5032022;28;20302;-78
2022/10/12 07:06:47;;;;;;;0.10;0.10;;;5.20;99.90;;;;;;5031281;28;20273;-79
2022/10/12 07:09:17;;;;;;;0.10;0.10;;;5.20;99.90;;;;;;5030270;28;20739;-79
2022/10/12 07:11:46;;;;;;;0.10;0.10;;;5.10;99.90;;;;;;5031582;28;20677;-78
2022/10/12 07:14:14;;;;;;;0.10;0.10;;;5.10;99.90;;;;;;5030911;28;20261;-79
2022/10/12 07:16:42;;;;;;;0.10;0.10;;;5.20;99.90;;;;;;5030675;28;20269;-78
2022/10/12 07:19:10;;;;;;;0.10;0.10;;;5.30;99.90;;;;;;5030206;28;20207;-78
2022/10/12 07:21:38;;;;;;;0.10;0.10;;;5.40;99.90;;;;;;5031953;28;20203;-78
2022/10/12 07:24:06;;;;;;;0.10;0.10;;;5.50;99.90;;;;;;5031125;28;20262;-78
2022/10/12 07:26:35;;;;;;;0.10;0.10;;;5.70;99.90;;;;;;5030399;28;20222;-78
2022/10/12 07:29:03;;;;;;;0.10;0.10;;;5.70;99.90;;;;;;5030912;28;20207;-79
2022/10/12 07:31:31;;;;;;;0.10;0.10;;;5.80;99.90;;;;;;5031650;28;20195;-78
2022/10/12 07:33:59;;;;;;;0.10;0.10;;;5.90;99.90;;;;;;5031953;28;20681;-80
2022/10/12 07:36:27;;;;;;;0.10;0.10;;;6.00;99.90;;;;;;5019037;28;20219;-80
2022/10/12 07:39:15;;;;;;;0.10;0.10;;;6.00;99.90;;;;;;5028378;28;20436;-78
2022/10/12 07:41:44;;;;;;;0.10;0.10;;;6.10;99.90;;;;;;5032004;28;20646;-78
2022/10/12 07:44:12;;;;;;;0.10;0.10;;;6.10;99.90;;;;;;5032721;28;20214;-78
2022/10/12 07:46:40;;;;;;;0.10;0.10;;;6.20;99.90;;;;;;5032361;28;20270;-78
2022/10/12 07:49:08;;;;;;;0.10;0.10;;;6.20;99.90;;;;;;5030295;28;20214;-78
2022/10/12 07:51:37;;;;;;;0.10;0.10;;;6.30;99.90;;;;;;5031049;28;20723;-78
2022/10/12 07:54:05;;;;;;;0.10;0.10;;;6.40;99.90;;;;;;5031376;28;20267;-78
2022/10/12 07:56:34;;;;;;;0.05;0.05;;;6.50;99.90;;;;;;5029174;28;20277;-78
2022/10/12 07:59:03;;;;;;;0.10;0.10;;;6.60;99.90;;;;;;5028523;28;20203;-81
2022/10/12 08:01:33;;;;;;;0.10;0.10;;;6.70;99.90;;;;;;5030273;28;20301;-78
2022/10/12 08:04:01;;;;;;;0.10;0.10;;;6.80;99.90;;;;;;5027691;28;20214;-78
2022/10/12 08:06:33;;;;;;;0.10;0.10;;;6.90;99.90;;;;;;5030870;28;20229;-78
2022/10/12 08:09:01;;;;;;;0.10;0.10;;;7.00;99.90;;;;;;5027165;28;20203;-79
2022/10/12 08:11:30;;;;;;;0.10;0.10;;;7.10;99.90;;;;;;5031483;28;20187;-79
2022/10/12 08:13:58;;;;;;;0.10;0.10;;;7.20;99.90;;;;;;5030485;28;20292;-79
2022/10/12 08:16:27;;;;;;;0.10;0.10;;;7.40;99.90;;;;;;5031128;28;20218;-79
2022/10/12 08:18:55;;;;;;;0.10;0.10;;;7.50;99.90;;;;;;5028490;28;20665;-79
2022/10/12 08:21:23;;;;;;;0.10;0.10;;;7.60;99.90;;;;;;5031251;28;20202;-79
2022/10/12 08:23:51;;;;;;;0.10;0.10;;;7.70;99.90;;;;;;5029571;28;20245;-79
2022/10/12 08:26:19;;;;;;;0.10;0.10;;;7.80;99.90;;;;;;5030083;28;20276;-79
2022/10/12 08:28:46;;;;;;;0.10;0.10;;;8.00;99.90;;;;;;5030366;28;20207;-78
2022/10/12 08:31:16;;;;;;;0.10;0.10;;;8.10;99.90;;;;;;5031240;28;20287;-79
2022/10/12 08:33:45;;;;;;;0.10;0.10;;;8.30;99.90;;;;;;5031705;28;20701;-79
2022/10/12 08:36:13;;;;;;;0.10;0.10;;;8.40;99.90;;;;;;5029992;28;20223;-79
2022/10/12 08:38:43;;;;;;;0.10;0.10;;;8.50;99.90;;;;;;5031355;28;20199;-80
2022/10/12 08:41:23;;;;;;;0.10;0.10;;;8.60;99.90;;;;;;5031617;28;20604;-78
2022/10/12 08:44:07;;;;;;;0.10;0.10;;;8.70;99.90;;;;;;5031908;28;20584;-79
2022/10/12 08:46:35;;;;;;;0.05;0.05;;;8.80;99.90;;;;;;5026451;28;20219;-79
2022/10/12 08:49:10;;;;;;;0.10;0.10;;;8.90;99.90;;;;;;5025371;28;20273;-78
2022/10/12 08:51:46;;;;;;;0.10;0.10;;;9.00;99.90;;;;;;5027948;28;20195;-79
2022/10/12 08:54:17;;;;;;;0.10;0.10;;;9.10;99.90;;;;;;5032171;28;20567;-79
2022/10/12 08:56:45;;;;;;;0.10;0.10;;;9.20;99.90;;;;;;5030029;28;20211;-79
2022/10/12 08:59:14;;;;;;;0.10;0.10;;;9.30;99.90;;;;;;5031492;28;20195;-79
2022/10/12 09:02:05;;;;;;;0.10;0.10;;;9.40;99.90;;;;;;5031249;28;20222;-78
2022/10/12 09:04:46;;;;;;;0.10;0.10;;;9.50;99.90;;;;;;5035283;28;20196;-79
2022/10/12 09:07:19;;;;;;;0.10;0.10;;;9.70;99.90;;;;;;5034750;28;20218;-79
2022/10/12 09:10:02;;;;;;;0.10;0.10;;;9.80;99.90;;;;;;5033734;28;20724;-79
2022/10/12 09:12:44;;;;;;;0.10;0.10;;;9.90;99.90;;;;;;5032744;28;20199;-80
2022/10/12 09:15:16;;;;;;;0.10;0.10;;;10.00;99.90;;;;;;5034216;28;20272;-79
2022/10/12 09:17:47;;;;;;;0.10;0.10;;;10.10;99.90;;;;;;5032381;28;20209;-79
2022/10/12 09:20:20;;;;;;;0.10;0.10;;;10.20;99.90;;;;;;5034611;28;20203;-79
2022/10/12 09:22:50;;;;;;;0.10;0.10;;;10.30;99.90;;;;;;5034933;28;20245;-79
2022/10/12 09:25:21;;;;;;;0.10;0.10;;;10.50;99.90;;;;;;5034301;28;20251;-80
2022/10/12 09:27:50;;;;;;;0.10;0.10;;;10.60;99.90;;;;;;5033788;28;20230;-79
2022/10/12 09:30:20;;;;;;;0.10;0.10;;;10.70;99.90;;;;;;5038782;28;20206;-78
2022/10/12 09:33:09;;;;;;;0.10;0.10;;;10.70;99.90;;;;;;5041007;28;20222;-79
2022/10/12 09:35:41;;;;;;;0.10;0.10;;;10.90;99.90;;;;;;5037837;28;20219;-79
2022/10/12 09:38:10;;;;;;;0.10;0.10;;;11.00;99.90;;;;;;5034108;28;20191;-79
2022/10/12 09:40:39;;;;;;;0.10;0.10;;;11.20;99.90;;;;;;5031594;28;20245;-79
2022/10/12 09:43:08;;;;;;;0.10;0.10;;;11.30;99.90;;;;;;5035653;28;20252;-79
2022/10/12 09:45:37;;;;;;;0.10;0.10;;;11.40;99.90;;;;;;5028192;28;20593;-79
2022/10/12 09:48:15;;;;;;;0.10;0.10;;;11.50;99.90;;;;;;5033127;28;20222;-80
2022/10/12 09:50:52;;;;;;;0.00;0.00;;;11.60;99.90;;;;;;5028009;28;20210;-79
2022/10/12 09:53:31;;;;;;;0.10;0.10;;;11.70;99.90;;;;;;5032106;28;20210;-79
2022/10/12 09:56:06;;;;;;;0.00;0.00;;;11.80;99.90;;;;;;5026495;28;20608;-78
2022/10/12 09:58:40;;;;;;;0.10;0.10;;;11.90;99.90;;;;;;5024743;28;20287;-79
2022/10/12 10:01:20;;;;;;;0.10;0.10;;;12.00;99.90;;;;;;5031101;28;20622;-80
2022/10/12 10:03:50;;;;;;;0.10;0.10;;;12.10;99.90;;;;;;5029849;28;20191;-80
2022/10/12 10:06:26;;;;;;;0.10;0.10;;;12.30;99.90;;;;;;5027040;28;20227;-79
2022/10/12 10:08:55;;;;;;;0.10;0.10;;;12.40;99.90;;;;;;5026976;28;20198;-79
2022/10/12 10:11:29;;;;;;;0.10;0.10;;;12.60;99.90;;;;;;5025246;28;20230;-79
2022/10/12 10:13:59;;;;;;;0.00;0.00;;;12.70;99.90;;;;;;5023446;28;20218;-78
2022/10/12 10:16:30;;;;;;;0.00;0.00;;;13.10;99.90;;;;;;5028759;28;20268;-79
2022/10/12 10:19:00;;;;;;;0.00;0.00;;;13.40;99.90;;;;;;5033117;28;20198;-79
2022/10/12 10:21:33;;;;;;;0.08;0.08;;;13.40;99.90;;;;;;5025016;28;20207;-79
2022/10/12 10:24:03;;;;;;;0.00;0.00;;;13.70;99.90;;;;;;5026412;28;20248;-79
2022/10/12 10:26:51;;;;;;;0.10;0.10;;;13.90;99.90;;;;;;5024832;28;20212;-79
2022/10/12 10:29:30;;;;;;;0.10;0.10;;;14.00;99.90;;;;;;5024349;28;20254;-78
2022/10/12 10:32:15;;;;;;;0.10;0.10;;;14.20;99.90;;;;;;5029382;28;20602;-78
2022/10/12 10:34:43;;;;;;;0.00;0.00;;;14.30;99.90;;;;;;5025467;28;20264;-79
2022/10/12 10:37:21;;;;;;;0.00;0.00;;;14.40;99.90;;;;;;5030234;28;20195;-80
2022/10/12 10:39:52;;;;;;;0.00;0.00;;;14.40;99.90;;;;;;5027714;28;20286;-79
2022/10/12 10:42:27;;;;;;;0.00;0.00;;;14.50;99.90;;;;;;5030080;28;20211;-79
2022/10/12 10:45:02;;;;;;;0.00;0.00;;;14.50;99.90;;;;;;5025371;28;20637;-79
2022/10/12 10:47:33;;;;;;;0.00;0.00;;;14.60;99.90;;;;;;5028833;28;20227;-78
2022/10/12 10:50:04;;;;;;;0.00;0.00;;;14.70;99.90;;;;;;5024740;28;20218;-78
2022/10/12 10:52:36;;;;;;;0.03;0.03;;;14.80;99.90;;;;;;5028953;28;20229;-79
2022/10/12 10:55:23;;;;;;;0.10;0.10;;;14.90;99.90;;;;;;5053737;23;20287;-77
2022/10/12 10:58:01;;;;;;;0.00;0.00;;;14.90;99.90;;;;;;5029208;28;20210;-78
2022/10/12 11:00:33;;;;;;;0.00;0.00;;;15.00;99.90;;;;;;5022538;28;20290;-77
2022/10/12 11:03:12;;;;;;;0.00;0.00;;;15.10;99.90;;;;;;5024218;28;20281;-77
2022/10/12 11:05:44;;;;;;;0.00;0.00;;;15.20;99.90;;;;;;5026141;28;20207;-77
2022/10/12 11:08:18;;;;;;;0.00;0.00;;;15.20;99.90;;;;;;5034404;28;20257;-77
2022/10/12 11:10:50;;;;;;;0.00;0.00;;;15.30;99.90;;;;;;5032307;28;20679;-77
2022/10/12 11:13:22;;;;;;;0.00;0.00;;;15.70;99.90;;;;;;5034998;28;20226;-77
2022/10/12 11:15:53;;;;;;;0.00;0.00;;;16.10;99.90;;;;;;5031936;28;20219;-77
2022/10/12 11:18:27;;;;;;;0.00;0.00;;;16.40;99.90;;;;;;5034649;28;20274;-77
2022/10/12 11:20:58;;;;;;;0.00;0.00;;;16.50;99.90;;;;;;5034674;28;20199;-77
2022/10/12 11:23:37;;;;;;;0.00;0.00;;;16.90;99.90;;;;;;5032836;28;20229;-77
2022/10/12 11:26:20;;;;;;;0.00;0.00;;;17.10;99.90;;;;;;5031153;28;20727;-77
2022/10/12 11:28:48;;;;;;;0.10;0.10;;;17.40;99.90;;;;;;5031076;28;20198;-77
2022/10/12 11:31:21;;;;;;;0.00;0.00;;;17.70;99.90;;;;;;5030679;28;20254;-77
2022/10/12 11:33:50;;;;;;;0.00;0.00;;;17.90;99.90;;;;;;5032793;28;20215;-77
2022/10/12 11:36:22;;;;;;;0.00;0.00;;;18.00;99.90;;;;;;5031616;28;20230;-78
2022/10/12 11:39:03;;;;;;;0.00;0.00;;;18.20;99.90;;;;;;5042014;28;20527;-78
2022/10/12 11:41:44;;;;;;;0.00;0.00;;;18.30;99.90;;;;;;5030480;28;20199;-78
2022/10/12 11:44:40;;;;;;;0.00;0.00;;;18.30;99.90;;;;;;5032547;28;20222;-78
2022/10/12 11:47:16;;;;;;;0.00;0.00;;;18.30;99.90;;;;;;5032264;28;20226;-77
2022/10/12 11:49:50;;;;;;;0.00;0.00;;;18.30;99.90;;;;;;5029777;28;20260;-78
2022/10/12 11:52:20;;;;;;;0.00;0.00;;;18.50;99.90;;;;;;5031479;28;20600;-77
2022/10/12 11:55:00;;;;;;;0.00;0.00;;;18.40;99.90;;;;;;5031006;28;20223;-77
2022/10/12 11:57:31;;;;;;;0.00;0.00;;;18.40;99.90;;;;;;5042134;28;20234;-77
2022/10/12 12:00:04;;;;;;;0.00;0.00;;;18.50;99.90;;;;;;5039203;28;20210;-77
2022/10/12 12:02:41;;;;;;;0.00;0.00;;;18.50;99.90;;;;;;5033523;28;20324;-78
2022/10/12 12:05:12;;;;;;;0.00;0.00;;;18.50;99.90;;;;;;5033539;28;20276;-77
2022/10/12 12:07:48;;;;;;;0.00;0.00;;;18.60;99.90;;;;;;5031692;28;20216;-77
2022/10/12 12:10:58;;;;;;;0.00;0.00;;;18.60;99.90;;;;;;5033305;28;20203;-77
2022/10/12 12:13:28;;;;;;;0.00;0.00;;;18.60;99.90;;;;;;5016250;28;20226;-77
2022/10/12 12:16:33;;;;;;;0.00;0.00;;;18.80;99.90;;;;;;5033639;28;20223;-77
2022/10/12 12:19:39;;;;;;;0.00;0.00;;;18.50;99.90;;;;;;5011369;28;20215;-77
2022/10/12 12:22:23;;;;;;;0.00;0.00;;;18.50;99.90;;;;;;5026287;28;20289;-77
2022/10/12 12:24:54;;;;;;;0.00;0.00;;;18.40;99.90;;;;;;5032198;28;20206;-77
2022/10/12 12:27:33;;;;;;;0.00;0.00;;;18.30;99.90;;;;;;5031597;28;20211;-77
2022/10/12 12:30:06;;;;;;;0.00;0.00;;;18.10;99.90;;;;;;5020848;28;20202;-77
2022/10/12 12:32:44;;;;;;;0.00;0.00;;;17.70;99.90;;;;;;5033082;28;20195;-77
2022/10/12 12:35:21;;;;;;;0.00;0.00;;;17.70;99.90;;;;;;5033212;28;20298;-77
2022/10/12 12:38:16;;;;;;;0.00;0.00;;;17.60;99.90;;;;;;5030892;28;20210;-77
2022/10/12 12:40:56;;;;;;;0.00;0.00;;;17.50;99.90;;;;;;5034244;28;20202;-77
2022/10/12 12:43:53;;;;;;;0.00;0.00;;;17.60;99.90;;;;;;5034190;28;20240;-77
2022/10/12 12:46:25;;;;;;;0.00;0.00;;;17.60;99.90;;;;;;5038169;28;20226;-77
2022/10/12 12:49:01;;;;;;;0.00;0.00;;;17.50;99.90;;;;;;5033311;28;20538;-78
2022/10/12 12:51:37;;;;;;;0.00;0.00;;;17.60;99.90;;;;;;5044232;28;20680;-78
2022/10/12 12:54:12;;;;;;;0.00;0.00;;;18.00;99.90;;;;;;5036785;28;20248;-77
2022/10/12 12:56:47;;;;;;;0.00;0.00;;;18.10;99.90;;;;;;5036120;28;20226;-77
2022/10/12 12:59:58;;;;;;;0.00;0.00;;;18.10;99.90;;;;;;5034768;28;20194;-77
2022/10/12 13:03:03;;;;;;;0.00;0.00;;;17.90;99.90;;;;;;4949464;28;20237;-77
2022/10/12 13:06:00;;;;;;;0.00;0.00;;;18.10;99.90;;;;;;5033219;28;20225;-77
2022/10/12 13:08:38;;;;;;;0.00;0.00;;;18.10;99.90;;;;;;5032784;28;20198;-77
2022/10/12 13:11:31;;;;;;;0.00;0.00;;;18.00;99.90;;;;;;5035508;28;20249;-77
2022/10/12 13:14:07;;;;;;;0.00;0.00;;;17.90;99.90;;;;;;5035094;28;20580;-77
2022/10/12 13:16:52;;;;;;;0.00;0.00;;;17.80;99.90;;;;;;5033794;28;20280;-77
2022/10/12 13:19:43;;;;;;;0.00;0.00;;;17.80;99.90;;;;;;5030088;28;20232;-77